Susquehanna — WDD9976 — position and weather

sailwx.info

Track history (hours):
 
Tides and Currents Weather Stations Pressure Air Temp Water Temp Dewpoint Dewpoint Depression Visibility Wind Speed Wind Dir Waves Ship Positions

Susquehanna

Owner: Vane Line Bunkering, Inc., Philadelphia, PA. More information available from US FCC via Universal Licensing System and Coast Guard Vessel Documentation Center.

Last reported at 2017-Sep-19 18:01 UTC. Time now 2017-Sep-25 15:32 UTC.
Position N 25°40' W 080°02'.

Length 28 m; draft 4.2 m.

Type: Tug. MMSI: 367318750.

Date/timePositionNaut miles runAvg speedWind from/ knotsBaromVisibWave heightAir tempDewpointWater temp
2017-Sep-19 18:01N 25°40' W 080°02'010.6
2017-Sep-19 17:59N 25°40' W 080°02'510.7
2017-Sep-19 17:30N 25°45' W 080°02'510.7
2017-Sep-19 17:00N 25°51' W 080°02'510.7
2017-Sep-19 16:30N 25°56' W 080°03'510.2
2017-Sep-19 16:00N 26°01' W 080°03'5 9.1
2017-Sep-19 15:30N 26°05' W 080°05'2 3.3
2017-Sep-19 15:01N 26°05' W 080°07'0 0.0
2017-Sep-19 14:29N 26°05' W 080°07'0 0.1
2017-Sep-19 14:00N 26°05' W 080°07'0 0.0
2017-Sep-19 13:31N 26°05' W 080°07'0 0.0
2017-Sep-19 13:01N 26°05' W 080°07'0 0.0
2017-Sep-19 12:31N 26°05' W 080°07'0 0.0
2017-Sep-19 12:01N 26°05' W 080°07'0 0.0
2017-Sep-19 11:30N 26°05' W 080°07'0 0.0
2017-Sep-19 11:01N 26°05' W 080°07'0 0.0
2017-Sep-19 10:30N 26°05' W 080°07'0 0.0
2017-Sep-19 10:00N 26°05' W 080°07'0 0.0
2017-Sep-19 09:31N 26°05' W 080°07'0 0.0
2017-Sep-19 09:00N 26°05' W 080°07'0 0.0
2017-Sep-19 08:30N 26°05' W 080°07'0 0.0
2017-Sep-19 08:00N 26°05' W 080°07'0 0.0
2017-Sep-19 07:30N 26°05' W 080°07'0 0.0
2017-Sep-19 07:00N 26°05' W 080°07'0 0.0
2017-Sep-19 06:30N 26°05' W 080°07'0 0.0
2017-Sep-19 06:00N 26°05' W 080°07'0 0.0
2017-Sep-19 05:30N 26°05' W 080°07'0 0.0
2017-Sep-19 05:00N 26°05' W 080°07'0 0.0
2017-Sep-19 04:30N 26°05' W 080°07'0 0.0
2017-Sep-19 04:00N 26°05' W 080°07'0 0.0
2017-Sep-19 03:30N 26°05' W 080°07'4 7.1
2017-Sep-19 03:00N 26°07' W 080°03'2 4.3
2017-Sep-19 02:30N 26°09' W 080°03'0 0.7
2017-Sep-19 02:00N 26°09' W 080°03'2 4.2
2017-Sep-19 01:30N 26°07' W 080°04'2 4.4
2017-Sep-19 01:00N 26°04' W 080°04'1 1.8
2017-Sep-19 00:31N 26°05' W 080°03'2 4.8
2017-Sep-19 00:01N 26°07' W 080°03'47 5.2
2017-Sep-18 15:02N 26°53' W 079°60'0 5.9
2017-Sep-18 15:00N 26°54' W 079°60'3 6.3
2017-Sep-18 14:30N 26°57' W 079°60'3 6.6
2017-Sep-18 14:00N 27°00' W 079°60'  
2017-Sep-14 02:45N 36°53' W 075°54'2 7.2
2017-Sep-14 02:30N 36°54' W 075°56'5 7.8
2017-Sep-14 01:55N 36°57' W 076°01'8 1.1
2017-Sep-13 18:37N 37°02' W 076°09'97 9.1
2017-Sep-13 07:52N 38°38' W 076°28'4 9.4
2017-Sep-13 07:24N 38°42' W 076°28'4 9.2
2017-Sep-13 07:01N 38°46' W 076°28'5 9.2
2017-Sep-13 06:30N 38°51' W 076°26'4 9.1
2017-Sep-13 06:01N 38°55' W 076°25'4 8.9
2017-Sep-13 05:30N 38°59' W 076°23'4 8.6
2017-Sep-13 05:00N 39°03' W 076°21'4 8.1
2017-Sep-13 04:30N 39°07' W 076°18'4 6.9
2017-Sep-13 04:00N 39°10' W 076°18'4 7.9
2017-Sep-13 03:30N 39°13' W 076°15'4 7.9
2017-Sep-13 03:00N 39°17' W 076°14'4 7.9
2017-Sep-13 02:30N 39°20' W 076°11'4 8.6
2017-Sep-13 02:00N 39°23' W 076°06'5 9.1
2017-Sep-13 01:30N 39°25' W 076°01'5 9.6
2017-Sep-13 01:01N 39°29' W 075°57'5 9.7
2017-Sep-13 00:30N 39°32' W 075°52'5 9.5
2017-Sep-13 00:00N 39°32' W 075°46'510.5
2017-Sep-12 23:30N 39°33' W 075°39'510.1
2017-Sep-12 23:00N 39°34' W 075°33'4 8.6
2017-Sep-12 22:31N 39°38' W 075°34'4 8.5
2017-Sep-12 22:01N 39°42' W 075°31'4 8.1
2017-Sep-12 21:30N 39°45' W 075°29'3 7.0
2017-Sep-12 21:00N 39°48' W 075°26'4 7.3
2017-Sep-12 20:31N 39°50' W 075°22'3 6.8
2017-Sep-12 20:00N 39°51' W 075°18'3 5.5
2017-Sep-12 19:30N 39°51' W 075°14'3 4.5
2017-Sep-12 18:55N 39°54' W 075°12'0 0.1
2017-Sep-12 18:29N 39°54' W 075°12'1 1.2
2017-Sep-12 18:00N 39°54' W 075°12'0 0.0
2017-Sep-12 17:30N 39°54' W 075°12'0 0.0
2017-Sep-12 16:58N 39°54' W 075°12'0 0.0
2017-Sep-12 16:31N 39°54' W 075°12'0 0.0
2017-Sep-12 16:01N 39°54' W 075°12'0 0.6
2017-Sep-12 15:31N 39°54' W 075°12'0 0.4
2017-Sep-12 15:00N 39°54' W 075°12'0 0.1
2017-Sep-12 14:31N 39°54' W 075°12'0 0.9
2017-Sep-12 14:01N 39°54' W 075°12'1 1.2
2017-Sep-12 13:29N 39°54' W 075°12'0 0.0
2017-Sep-12 12:59N 39°54' W 075°12'0 0.0
2017-Sep-12 12:29N 39°54' W 075°12'0 0.0
2017-Sep-12 09:14N 39°54' W 075°12'0 0.0
2017-Sep-12 08:59N 39°54' W 075°12'0 0.0
2017-Sep-12 08:29N 39°54' W 075°12'0 0.0
2017-Sep-12 07:59N 39°54' W 075°12'0 0.0
2017-Sep-12 07:30N 39°54' W 075°12'0 0.0
2017-Sep-12 07:00N 39°54' W 075°12'0 0.0
2017-Sep-12 06:30N 39°54' W 075°12'1 2.7
2017-Sep-12 06:00N 39°53' W 075°11'2 4.1
2017-Sep-12 05:30N 39°54' W 075°08'0 0.5
2017-Sep-12 05:00N 39°54' W 075°08'4 7.8
2017-Sep-12 04:30N 39°52' W 075°13'4 8.7
2017-Sep-12 04:00N 39°51' W 075°18'4 8.3
2017-Sep-12 03:31N 39°49' W 075°23'4 8.5
2017-Sep-12 03:00N 39°47' W 075°28'4 8.6
2017-Sep-12 02:31N 39°43' W 075°30'1 1.2
2017-Sep-12 02:00N 39°43' W 075°31'0 0.0
2017-Sep-12 01:28N 39°43' W 075°31'0 0.0
2017-Sep-12 00:58N 39°43' W 075°31'0 0.0
2017-Sep-12 00:28N 39°43' W 075°31'0 0.0
2017-Sep-11 23:59N 39°43' W 075°31'0 0.0
2017-Sep-11 23:29N 39°43' W 075°31'0 0.0
2017-Sep-11 22:59N 39°43' W 075°31'0 0.0
2017-Sep-11 22:29N 39°43' W 075°31'0 0.0
2017-Sep-11 22:00N 39°43' W 075°31'1 1.7
2017-Sep-11 21:30N 39°44' W 075°30'4 8.4
2017-Sep-11 21:00N 39°47' W 075°27'4 7.7
2017-Sep-11 20:30N 39°49' W 075°23'4 7.0
2017-Sep-11 20:00N 39°51' W 075°19'4 7.1
2017-Sep-11 19:30N 39°51' W 075°15'3 6.6
2017-Sep-11 19:00N 39°53' W 075°11'2 4.1
2017-Sep-11 18:30N 39°54' W 075°08'1 2.2
2017-Sep-11 18:01N 39°55' W 075°08'4 7.2
2017-Sep-11 17:31N 39°58' W 075°07'2 3.7
2017-Sep-11 16:58N 39°59' W 075°04'3 5.5
2017-Sep-11 16:30N 39°58' W 075°07'3 6.9
2017-Sep-11 16:00N 39°55' W 075°08'3 5.8
2017-Sep-11 15:30N 39°53' W 075°11'1 2.9
2017-Sep-11 15:00N 39°54' W 075°12'1 1.3
2017-Sep-11 14:29N 39°53' W 075°12'2 5.0
2017-Sep-11 14:01N 39°53' W 075°09'1 1.2
2017-Sep-11 13:26N 39°54' W 075°08'0 0.0
2017-Sep-11 12:59N 39°54' W 075°08'0 0.0
2017-Sep-11 12:29N 39°54' W 075°08'0 0.0
2017-Sep-11 12:00N 39°54' W 075°08'0 0.2
2017-Sep-11 11:30N 39°54' W 075°08'0 0.0
2017-Sep-11 11:00N 39°54' W 075°08'2 3.7
2017-Sep-11 10:30N 39°53' W 075°10'1 2.2
2017-Sep-11 10:01N 39°53' W 075°12'1 1.1
2017-Sep-11 09:28N 39°54' W 075°12'0 0.0
2017-Sep-11 08:55N 39°54' W 075°12'0 0.0
2017-Sep-11 08:29N 39°54' W 075°12'0 0.0
2017-Sep-11 07:59N 39°54' W 075°12'0 0.0
2017-Sep-11 07:29N 39°54' W 075°12'0 0.0
2017-Sep-11 06:59N 39°54' W 075°12'0 0.0
2017-Sep-11 06:30N 39°54' W 075°12'0 0.0
2017-Sep-11 06:00N 39°54' W 075°12'0 0.0
2017-Sep-11 05:31N 39°54' W 075°12'0 0.0
2017-Sep-11 04:58N 39°54' W 075°12'0 0.0
2017-Sep-11 04:28N 39°54' W 075°12'0 0.0
2017-Sep-11 03:59N 39°54' W 075°12'0 0.0
2017-Sep-11 03:29N 39°54' W 075°12'0 0.0
2017-Sep-11 02:59N 39°54' W 075°12'0 0.0
2017-Sep-11 02:30N 39°54' W 075°12'0 0.0
2017-Sep-11 02:00N 39°54' W 075°12'0 0.0
2017-Sep-11 01:30N 39°54' W 075°12'0 0.0
2017-Sep-11 01:01N 39°54' W 075°12'0 0.0
2017-Sep-11 00:28N 39°54' W 075°12'0 0.1
2017-Sep-11 00:01N 39°54' W 075°12'1 1.6
2017-Sep-10 23:31N 39°53' W 075°12'4 8.7
2017-Sep-10 23:00N 39°51' W 075°17'5 9.2
2017-Sep-10 22:30N 39°50' W 075°22'3 6.9
2017-Sep-10 22:00N 39°48' W 075°26'5 9.2
2017-Sep-10 21:30N 39°44' W 075°30'5 9.7
2017-Sep-10 21:01N 39°40' W 075°32'4 8.3
2017-Sep-10 20:30N 39°36' W 075°34'3 5.5
2017-Sep-10 20:00N 39°33' W 075°36'4 7.4
2017-Sep-10 19:30N 39°33' W 075°41'4 7.4
2017-Sep-10 19:00N 39°32' W 075°45'4 7.0
2017-Sep-10 18:30N 39°32' W 075°50'4 8.1
2017-Sep-10 18:00N 39°30' W 075°55'5 9.5
2017-Sep-10 17:30N 39°27' W 075°59'5 9.9
2017-Sep-10 17:00N 39°24' W 076°04'510.4
2017-Sep-10 16:30N 39°21' W 076°10'19 7.5
2017-Sep-10 14:00N 39°13' W 076°31'3 5.6
2017-Sep-10 13:30N 39°15' W 076°33'0 0.0
2017-Sep-10 12:57N 39°15' W 076°33'0 0.0
2017-Sep-10 12:30N 39°15' W 076°33'0 0.0
2017-Sep-10 11:58N 39°15' W 076°33'0 0.0
2017-Sep-10 11:28N 39°15' W 076°33'0 0.0
2017-Sep-10 10:58N 39°15' W 076°33'0 0.0
2017-Sep-10 10:29N 39°15' W 076°33'0 0.1
2017-Sep-10 10:00N 39°15' W 076°33'1 1.7
2017-Sep-10 09:30N 39°14' W 076°34'1 1.0
2017-Sep-10 08:58N 39°15' W 076°34'0 0.0
2017-Sep-10 08:28N 39°15' W 076°34'0 0.0
2017-Sep-10 07:58N 39°15' W 076°34'0 0.0
2017-Sep-10 07:29N 39°15' W 076°34'0 0.0
2017-Sep-10 06:59N 39°15' W 076°34'0 0.0
2017-Sep-10 06:29N 39°15' W 076°34'0 0.0
2017-Sep-10 06:00N 39°15' W 076°34'0 0.0
2017-Sep-10 05:30N 39°15' W 076°34'0 0.0
2017-Sep-10 05:00N 39°15' W 076°34'0 0.0
2017-Sep-10 04:28N 39°15' W 076°34'0 0.0
2017-Sep-10 03:58N 39°15' W 076°34'0 0.0
2017-Sep-10 03:28N 39°15' W 076°34'0 0.0
2017-Sep-10 02:56N 39°15' W 076°34'0 0.0
2017-Sep-10 02:26N 39°15' W 076°34'0 0.0
2017-Sep-10 01:59N 39°15' W 076°34'0 0.0
2017-Sep-10 01:30N 39°15' W 076°34'0 0.0
2017-Sep-10 01:00N 39°15' W 076°34'0 0.0
2017-Sep-10 00:30N 39°15' W 076°34'0 0.0
2017-Sep-09 23:58N 39°15' W 076°34'0 0.0
2017-Sep-09 23:28N 39°15' W 076°34'0 0.0
2017-Sep-09 22:59N 39°15' W 076°34'0 0.0
2017-Sep-09 22:29N 39°15' W 076°34'0 0.0
2017-Sep-09 21:59N 39°15' W 076°34'1 1.1
2017-Sep-09 21:30N 39°14' W 076°34'1 1.6
2017-Sep-09 21:00N 39°15' W 076°33'0 0.7
2017-Sep-09 20:30N 39°15' W 076°33'0 0.1
2017-Sep-09 20:00N 39°15' W 076°33'0 0.0
2017-Sep-09 19:30N 39°15' W 076°33'0 0.3
2017-Sep-09 19:00N 39°15' W 076°33'0 0.2
2017-Sep-09 18:29N 39°15' W 076°33'  
Track history (hours):
 
Tides and Currents Weather Stations Pressure Air Temp Water Temp Dewpoint Dewpoint Depression Visibility Wind Speed Wind Dir Waves Ship Positions

Susquehanna

Owner: Vane Line Bunkering, Inc., Philadelphia, PA. More information available from US FCC via Universal Licensing System and Coast Guard Vessel Documentation Center.

Last reported at 2017-Sep-19 18:01 UTC. Time now 2017-Sep-25 15:32 UTC.
Position N 25°40' W 080°02'.

Length 28 m; draft 4.2 m.

Type: Tug. MMSI: 367318750.

Date/timePositionNaut miles runAvg speedWind from/ knotsBaromVisibWave heightAir tempDewpointWater temp
2017-Sep-19 18:01N 25°40' W 080°02'010.6
2017-Sep-19 17:59N 25°40' W 080°02'510.7
2017-Sep-19 17:30N 25°45' W 080°02'510.7
2017-Sep-19 17:00N 25°51' W 080°02'510.7
2017-Sep-19 16:30N 25°56' W 080°03'510.2
2017-Sep-19 16:00N 26°01' W 080°03'5 9.1
2017-Sep-19 15:30N 26°05' W 080°05'2 3.3
2017-Sep-19 15:01N 26°05' W 080°07'0 0.0
2017-Sep-19 14:29N 26°05' W 080°07'0 0.1
2017-Sep-19 14:00N 26°05' W 080°07'0 0.0
2017-Sep-19 13:31N 26°05' W 080°07'0 0.0
2017-Sep-19 13:01N 26°05' W 080°07'0 0.0
2017-Sep-19 12:31N 26°05' W 080°07'0 0.0
2017-Sep-19 12:01N 26°05' W 080°07'0 0.0
2017-Sep-19 11:30N 26°05' W 080°07'0 0.0
2017-Sep-19 11:01N 26°05' W 080°07'0 0.0
2017-Sep-19 10:30N 26°05' W 080°07'0 0.0
2017-Sep-19 10:00N 26°05' W 080°07'0 0.0
2017-Sep-19 09:31N 26°05' W 080°07'0 0.0
2017-Sep-19 09:00N 26°05' W 080°07'0 0.0
2017-Sep-19 08:30N 26°05' W 080°07'0 0.0
2017-Sep-19 08:00N 26°05' W 080°07'0 0.0
2017-Sep-19 07:30N 26°05' W 080°07'0 0.0
2017-Sep-19 07:00N 26°05' W 080°07'0 0.0
2017-Sep-19 06:30N 26°05' W 080°07'0 0.0
2017-Sep-19 06:00N 26°05' W 080°07'0 0.0
2017-Sep-19 05:30N 26°05' W 080°07'0 0.0
2017-Sep-19 05:00N 26°05' W 080°07'0 0.0
2017-Sep-19 04:30N 26°05' W 080°07'0 0.0
2017-Sep-19 04:00N 26°05' W 080°07'0 0.0
2017-Sep-19 03:30N 26°05' W 080°07'4 7.1
2017-Sep-19 03:00N 26°07' W 080°03'2 4.3
2017-Sep-19 02:30N 26°09' W 080°03'0 0.7
2017-Sep-19 02:00N 26°09' W 080°03'2 4.2
2017-Sep-19 01:30N 26°07' W 080°04'2 4.4
2017-Sep-19 01:00N 26°04' W 080°04'1 1.8
2017-Sep-19 00:31N 26°05' W 080°03'2 4.8
2017-Sep-19 00:01N 26°07' W 080°03'47 5.2
2017-Sep-18 15:02N 26°53' W 079°60'0 5.9
2017-Sep-18 15:00N 26°54' W 079°60'3 6.3
2017-Sep-18 14:30N 26°57' W 079°60'3 6.6
2017-Sep-18 14:00N 27°00' W 079°60'  
2017-Sep-14 02:45N 36°53' W 075°54'2 7.2
2017-Sep-14 02:30N 36°54' W 075°56'5 7.8
2017-Sep-14 01:55N 36°57' W 076°01'8 1.1
2017-Sep-13 18:37N 37°02' W 076°09'97 9.1
2017-Sep-13 07:52N 38°38' W 076°28'4 9.4
2017-Sep-13 07:24N 38°42' W 076°28'4 9.2
2017-Sep-13 07:01N 38°46' W 076°28'5 9.2
2017-Sep-13 06:30N 38°51' W 076°26'4 9.1
2017-Sep-13 06:01N 38°55' W 076°25'4 8.9
2017-Sep-13 05:30N 38°59' W 076°23'4 8.6
2017-Sep-13 05:00N 39°03' W 076°21'4 8.1
2017-Sep-13 04:30N 39°07' W 076°18'4 6.9
2017-Sep-13 04:00N 39°10' W 076°18'4 7.9
2017-Sep-13 03:30N 39°13' W 076°15'4 7.9
2017-Sep-13 03:00N 39°17' W 076°14'4 7.9
2017-Sep-13 02:30N 39°20' W 076°11'4 8.6
2017-Sep-13 02:00N 39°23' W 076°06'5 9.1
2017-Sep-13 01:30N 39°25' W 076°01'5 9.6
2017-Sep-13 01:01N 39°29' W 075°57'5 9.7
2017-Sep-13 00:30N 39°32' W 075°52'5 9.5
2017-Sep-13 00:00N 39°32' W 075°46'510.5
2017-Sep-12 23:30N 39°33' W 075°39'510.1
2017-Sep-12 23:00N 39°34' W 075°33'4 8.6
2017-Sep-12 22:31N 39°38' W 075°34'4 8.5
2017-Sep-12 22:01N 39°42' W 075°31'4 8.1
2017-Sep-12 21:30N 39°45' W 075°29'3 7.0
2017-Sep-12 21:00N 39°48' W 075°26'4 7.3
2017-Sep-12 20:31N 39°50' W 075°22'3 6.8
2017-Sep-12 20:00N 39°51' W 075°18'3 5.5
2017-Sep-12 19:30N 39°51' W 075°14'3 4.5
2017-Sep-12 18:55N 39°54' W 075°12'0 0.1
2017-Sep-12 18:29N 39°54' W 075°12'1 1.2
2017-Sep-12 18:00N 39°54' W 075°12'0 0.0
2017-Sep-12 17:30N 39°54' W 075°12'0 0.0
2017-Sep-12 16:58N 39°54' W 075°12'0 0.0
2017-Sep-12 16:31N 39°54' W 075°12'0 0.0
2017-Sep-12 16:01N 39°54' W 075°12'0 0.6
2017-Sep-12 15:31N 39°54' W 075°12'0 0.4
2017-Sep-12 15:00N 39°54' W 075°12'0 0.1
2017-Sep-12 14:31N 39°54' W 075°12'0 0.9
2017-Sep-12 14:01N 39°54' W 075°12'1 1.2
2017-Sep-12 13:29N 39°54' W 075°12'0 0.0
2017-Sep-12 12:59N 39°54' W 075°12'0 0.0
2017-Sep-12 12:29N 39°54' W 075°12'0 0.0
2017-Sep-12 09:14N 39°54' W 075°12'0 0.0
2017-Sep-12 08:59N 39°54' W 075°12'0 0.0
2017-Sep-12 08:29N 39°54' W 075°12'0 0.0
2017-Sep-12 07:59N 39°54' W 075°12'0 0.0
2017-Sep-12 07:30N 39°54' W 075°12'0 0.0
2017-Sep-12 07:00N 39°54' W 075°12'0 0.0
2017-Sep-12 06:30N 39°54' W 075°12'1 2.7
2017-Sep-12 06:00N 39°53' W 075°11'2 4.1
2017-Sep-12 05:30N 39°54' W 075°08'0 0.5
2017-Sep-12 05:00N 39°54' W 075°08'4 7.8
2017-Sep-12 04:30N 39°52' W 075°13'4 8.7
2017-Sep-12 04:00N 39°51' W 075°18'4 8.3
2017-Sep-12 03:31N 39°49' W 075°23'4 8.5
2017-Sep-12 03:00N 39°47' W 075°28'4 8.6
2017-Sep-12 02:31N 39°43' W 075°30'1 1.2
2017-Sep-12 02:00N 39°43' W 075°31'0 0.0
2017-Sep-12 01:28N 39°43' W 075°31'0 0.0
2017-Sep-12 00:58N 39°43' W 075°31'0 0.0
2017-Sep-12 00:28N 39°43' W 075°31'0 0.0
2017-Sep-11 23:59N 39°43' W 075°31'0 0.0
2017-Sep-11 23:29N 39°43' W 075°31'0 0.0
2017-Sep-11 22:59N 39°43' W 075°31'0 0.0
2017-Sep-11 22:29N 39°43' W 075°31'0 0.0
2017-Sep-11 22:00N 39°43' W 075°31'1 1.7
2017-Sep-11 21:30N 39°44' W 075°30'4 8.4
2017-Sep-11 21:00N 39°47' W 075°27'4 7.7
2017-Sep-11 20:30N 39°49' W 075°23'4 7.0
2017-Sep-11 20:00N 39°51' W 075°19'4 7.1
2017-Sep-11 19:30N 39°51' W 075°15'3 6.6
2017-Sep-11 19:00N 39°53' W 075°11'2 4.1
2017-Sep-11 18:30N 39°54' W 075°08'1 2.2
2017-Sep-11 18:01N 39°55' W 075°08'4 7.2
2017-Sep-11 17:31N 39°58' W 075°07'2 3.7
2017-Sep-11 16:58N 39°59' W 075°04'3 5.5
2017-Sep-11 16:30N 39°58' W 075°07'3 6.9
2017-Sep-11 16:00N 39°55' W 075°08'3 5.8
2017-Sep-11 15:30N 39°53' W 075°11'1 2.9
2017-Sep-11 15:00N 39°54' W 075°12'1 1.3
2017-Sep-11 14:29N 39°53' W 075°12'2 5.0
2017-Sep-11 14:01N 39°53' W 075°09'1 1.2
2017-Sep-11 13:26N 39°54' W 075°08'0 0.0
2017-Sep-11 12:59N 39°54' W 075°08'0 0.0
2017-Sep-11 12:29N 39°54' W 075°08'0 0.0
2017-Sep-11 12:00N 39°54' W 075°08'0 0.2
2017-Sep-11 11:30N 39°54' W 075°08'0 0.0
2017-Sep-11 11:00N 39°54' W 075°08'2 3.7
2017-Sep-11 10:30N 39°53' W 075°10'1 2.2
2017-Sep-11 10:01N 39°53' W 075°12'1 1.1
2017-Sep-11 09:28N 39°54' W 075°12'0 0.0
2017-Sep-11 08:55N 39°54' W 075°12'0 0.0
2017-Sep-11 08:29N 39°54' W 075°12'0 0.0
2017-Sep-11 07:59N 39°54' W 075°12'0 0.0
2017-Sep-11 07:29N 39°54' W 075°12'0 0.0
2017-Sep-11 06:59N 39°54' W 075°12'0 0.0
2017-Sep-11 06:30N 39°54' W 075°12'0 0.0
2017-Sep-11 06:00N 39°54' W 075°12'0 0.0
2017-Sep-11 05:31N 39°54' W 075°12'0 0.0
2017-Sep-11 04:58N 39°54' W 075°12'0 0.0
2017-Sep-11 04:28N 39°54' W 075°12'0 0.0
2017-Sep-11 03:59N 39°54' W 075°12'0 0.0
2017-Sep-11 03:29N 39°54' W 075°12'0 0.0
2017-Sep-11 02:59N 39°54' W 075°12'0 0.0
2017-Sep-11 02:30N 39°54' W 075°12'0 0.0
2017-Sep-11 02:00N 39°54' W 075°12'0 0.0
2017-Sep-11 01:30N 39°54' W 075°12'0 0.0
2017-Sep-11 01:01N 39°54' W 075°12'0 0.0
2017-Sep-11 00:28N 39°54' W 075°12'0 0.1
2017-Sep-11 00:01N 39°54' W 075°12'1 1.6
2017-Sep-10 23:31N 39°53' W 075°12'4 8.7
2017-Sep-10 23:00N 39°51' W 075°17'5 9.2
2017-Sep-10 22:30N 39°50' W 075°22'3 6.9
2017-Sep-10 22:00N 39°48' W 075°26'5 9.2
2017-Sep-10 21:30N 39°44' W 075°30'5 9.7
2017-Sep-10 21:01N 39°40' W 075°32'4 8.3
2017-Sep-10 20:30N 39°36' W 075°34'3 5.5
2017-Sep-10 20:00N 39°33' W 075°36'4 7.4
2017-Sep-10 19:30N 39°33' W 075°41'4 7.4
2017-Sep-10 19:00N 39°32' W 075°45'4 7.0
2017-Sep-10 18:30N 39°32' W 075°50'4 8.1
2017-Sep-10 18:00N 39°30' W 075°55'5 9.5
2017-Sep-10 17:30N 39°27' W 075°59'5 9.9
2017-Sep-10 17:00N 39°24' W 076°04'510.4
2017-Sep-10 16:30N 39°21' W 076°10'19 7.5
2017-Sep-10 14:00N 39°13' W 076°31'3 5.6
2017-Sep-10 13:30N 39°15' W 076°33'0 0.0
2017-Sep-10 12:57N 39°15' W 076°33'0 0.0
2017-Sep-10 12:30N 39°15' W 076°33'0 0.0
2017-Sep-10 11:58N 39°15' W 076°33'0 0.0
2017-Sep-10 11:28N 39°15' W 076°33'0 0.0
2017-Sep-10 10:58N 39°15' W 076°33'0 0.0
2017-Sep-10 10:29N 39°15' W 076°33'0 0.1
2017-Sep-10 10:00N 39°15' W 076°33'1 1.7
2017-Sep-10 09:30N 39°14' W 076°34'1 1.0
2017-Sep-10 08:58N 39°15' W 076°34'0 0.0
2017-Sep-10 08:28N 39°15' W 076°34'0 0.0
2017-Sep-10 07:58N 39°15' W 076°34'0 0.0
2017-Sep-10 07:29N 39°15' W 076°34'0 0.0
2017-Sep-10 06:59N 39°15' W 076°34'0 0.0
2017-Sep-10 06:29N 39°15' W 076°34'0 0.0
2017-Sep-10 06:00N 39°15' W 076°34'0 0.0
2017-Sep-10 05:30N 39°15' W 076°34'0 0.0
2017-Sep-10 05:00N 39°15' W 076°34'0 0.0
2017-Sep-10 04:28N 39°15' W 076°34'0 0.0
2017-Sep-10 03:58N 39°15' W 076°34'0 0.0
2017-Sep-10 03:28N 39°15' W 076°34'0 0.0
2017-Sep-10 02:56N 39°15' W 076°34'0 0.0
2017-Sep-10 02:26N 39°15' W 076°34'0 0.0
2017-Sep-10 01:59N 39°15' W 076°34'0 0.0
2017-Sep-10 01:30N 39°15' W 076°34'0 0.0
2017-Sep-10 01:00N 39°15' W 076°34'0 0.0
2017-Sep-10 00:30N 39°15' W 076°34'0 0.0
2017-Sep-09 23:58N 39°15' W 076°34'0 0.0
2017-Sep-09 23:28N 39°15' W 076°34'0 0.0
2017-Sep-09 22:59N 39°15' W 076°34'0 0.0
2017-Sep-09 22:29N 39°15' W 076°34'0 0.0
2017-Sep-09 21:59N 39°15' W 076°34'1 1.1
2017-Sep-09 21:30N 39°14' W 076°34'1 1.6
2017-Sep-09 21:00N 39°15' W 076°33'0 0.7
2017-Sep-09 20:30N 39°15' W 076°33'0 0.1
2017-Sep-09 20:00N 39°15' W 076°33'0 0.0
2017-Sep-09 19:30N 39°15' W 076°33'0 0.3
2017-Sep-09 19:00N 39°15' W 076°33'0 0.2
2017-Sep-09 18:29N 39°15' W 076°33'  

Dump ship's entire track history